sensor_id;sensor_type;location;lat;lon;timestamp;P1;durP1;ratioP1;P2;durP2;ratioP2
18443;SDS011;9350;53.176;8.194;2024-01-10T00:02:21;20.92;;;10.93;;
18443;SDS011;9350;53.176;8.194;2024-01-10T00:04:48;22.58;;;11.20;;
18443;SDS011;9350;53.176;8.194;2024-01-10T00:07:17;25.80;;;12.13;;
18443;SDS011;9350;53.176;8.194;2024-01-10T00:09:43;21.10;;;11.13;;
18443;SDS011;9350;53.176;8.194;2024-01-10T00:12:11;21.95;;;11.07;;
18443;SDS011;9350;53.176;8.194;2024-01-10T00:14:38;23.50;;;11.50;;
18443;SDS011;9350;53.176;8.194;2024-01-10T00:17:07;22.63;;;10.73;;
18443;SDS011;9350;53.176;8.194;2024-01-10T00:19:34;21.30;;;11.80;;
18443;SDS011;9350;53.176;8.194;2024-01-10T00:22:01;25.73;;;11.88;;
18443;SDS011;9350;53.176;8.194;2024-01-10T00:24:29;23.93;;;12.27;;
18443;SDS011;9350;53.176;8.194;2024-01-10T00:26:56;22.42;;;12.45;;
18443;SDS011;9350;53.176;8.194;2024-01-10T00:29:22;24.03;;;11.70;;
18443;SDS011;9350;53.176;8.194;2024-01-10T00:31:49;23.83;;;11.60;;
18443;SDS011;9350;53.176;8.194;2024-01-10T00:34:17;23.67;;;11.93;;
18443;SDS011;9350;53.176;8.194;2024-01-10T00:36:44;24.50;;;11.63;;
18443;SDS011;9350;53.176;8.194;2024-01-10T00:39:11;27.80;;;12.17;;
18443;SDS011;9350;53.176;8.194;2024-01-10T00:41:39;22.88;;;11.35;;
18443;SDS011;9350;53.176;8.194;2024-01-10T00:44:06;22.43;;;11.57;;
18443;SDS011;9350;53.176;8.194;2024-01-10T00:46:33;21.88;;;11.70;;
18443;SDS011;9350;53.176;8.194;2024-01-10T00:49:00;25.45;;;11.38;;
18443;SDS011;9350;53.176;8.194;2024-01-10T00:51:26;22.87;;;10.90;;
18443;SDS011;9350;53.176;8.194;2024-01-10T00:53:53;21.33;;;11.57;;
18443;SDS011;9350;53.176;8.194;2024-01-10T00:56:20;22.37;;;12.20;;
18443;SDS011;9350;53.176;8.194;2024-01-10T00:58:48;26.67;;;12.07;;
18443;SDS011;9350;53.176;8.194;2024-01-10T01:01:15;27.13;;;13.17;;
18443;SDS011;9350;53.176;8.194;2024-01-10T01:03:42;23.93;;;11.87;;
18443;SDS011;9350;53.176;8.194;2024-01-10T01:06:08;26.25;;;11.82;;
18443;SDS011;9350;53.176;8.194;2024-01-10T01:08:35;25.00;;;12.52;;
18443;SDS011;9350;53.176;8.194;2024-01-10T01:11:02;22.40;;;11.33;;
18443;SDS011;9350;53.176;8.194;2024-01-10T01:13:29;25.92;;;12.70;;
18443;SDS011;9350;53.176;8.194;2024-01-10T01:15:57;24.37;;;12.17;;
18443;SDS011;9350;53.176;8.194;2024-01-10T01:18:24;23.80;;;12.47;;
18443;SDS011;9350;53.176;8.194;2024-01-10T01:20:50;24.77;;;11.77;;
18443;SDS011;9350;53.176;8.194;2024-01-10T01:23:17;24.93;;;12.87;;
18443;SDS011;9350;53.176;8.194;2024-01-10T01:25:44;24.65;;;12.07;;
18443;SDS011;9350;53.176;8.194;2024-01-10T01:28:11;25.53;;;12.87;;
18443;SDS011;9350;53.176;8.194;2024-01-10T01:30:38;22.77;;;12.00;;
18443;SDS011;9350;53.176;8.194;2024-01-10T01:33:06;24.90;;;11.93;;
18443;SDS011;9350;53.176;8.194;2024-01-10T01:35:33;22.50;;;11.73;;
18443;SDS011;9350;53.176;8.194;2024-01-10T01:38:00;29.13;;;12.97;;
18443;SDS011;9350;53.176;8.194;2024-01-10T01:40:26;27.52;;;12.27;;
18443;SDS011;9350;53.176;8.194;2024-01-10T01:42:53;21.60;;;11.73;;
18443;SDS011;9350;53.176;8.194;2024-01-10T01:45:20;24.20;;;11.80;;
18443;SDS011;9350;53.176;8.194;2024-01-10T01:47:47;24.63;;;12.70;;
18443;SDS011;9350;53.176;8.194;2024-01-10T01:50:15;23.83;;;12.40;;
18443;SDS011;9350;53.176;8.194;2024-01-10T01:52:42;23.77;;;12.83;;
18443;SDS011;9350;53.176;8.194;2024-01-10T01:55:10;22.25;;;12.43;;
18443;SDS011;9350;53.176;8.194;2024-01-10T01:57:37;23.13;;;12.30;;
18443;SDS011;9350;53.176;8.194;2024-01-10T02:00:04;24.20;;;12.07;;
18443;SDS011;9350;53.176;8.194;2024-01-10T02:12:57;23.70;;;13.13;;
18443;SDS011;9350;53.176;8.194;2024-01-10T02:15:23;26.40;;;12.43;;
18443;SDS011;9350;53.176;8.194;2024-01-10T02:17:50;24.87;;;13.00;;
18443;SDS011;9350;53.176;8.194;2024-01-10T02:20:17;24.27;;;12.77;;
18443;SDS011;9350;53.176;8.194;2024-01-10T02:22:46;24.40;;;13.02;;
18443;SDS011;9350;53.176;8.194;2024-01-10T02:25:16;25.37;;;12.17;;
18443;SDS011;9350;53.176;8.194;2024-01-10T02:27:43;25.60;;;13.02;;
18443;SDS011;9350;53.176;8.194;2024-01-10T02:30:10;25.97;;;12.83;;
18443;SDS011;9350;53.176;8.194;2024-01-10T02:32:37;22.08;;;12.88;;
18443;SDS011;9350;53.176;8.194;2024-01-10T02:35:04;25.57;;;12.20;;
18443;SDS011;9350;53.176;8.194;2024-01-10T02:37:32;27.77;;;13.73;;
18443;SDS011;9350;53.176;8.194;2024-01-10T02:39:58;24.67;;;13.50;;
18443;SDS011;9350;53.176;8.194;2024-01-10T02:42:27;22.37;;;12.03;;
18443;SDS011;9350;53.176;8.194;2024-01-10T02:44:55;23.87;;;12.57;;
18443;SDS011;9350;53.176;8.194;2024-01-10T02:47:22;25.13;;;13.30;;
18443;SDS011;9350;53.176;8.194;2024-01-10T02:49:48;24.50;;;12.15;;
18443;SDS011;9350;53.176;8.194;2024-01-10T02:52:15;23.75;;;12.68;;
18443;SDS011;9350;53.176;8.194;2024-01-10T02:54:44;25.93;;;12.50;;
18443;SDS011;9350;53.176;8.194;2024-01-10T02:57:11;25.30;;;12.98;;
18443;SDS011;9350;53.176;8.194;2024-01-10T02:59:39;24.23;;;12.40;;
18443;SDS011;9350;53.176;8.194;2024-01-10T03:02:06;23.90;;;12.60;;
18443;SDS011;9350;53.176;8.194;2024-01-10T03:04:33;24.30;;;12.93;;
18443;SDS011;9350;53.176;8.194;2024-01-10T03:06:59;25.23;;;12.77;;
18443;SDS011;9350;53.176;8.194;2024-01-10T03:09:26;28.67;;;12.73;;
18443;SDS011;9350;53.176;8.194;2024-01-10T03:11:53;22.38;;;12.88;;
18443;SDS011;9350;53.176;8.194;2024-01-10T03:14:20;26.13;;;13.10;;
18443;SDS011;9350;53.176;8.194;2024-01-10T03:16:48;24.00;;;12.97;;
18443;SDS011;9350;53.176;8.194;2024-01-10T03:19:15;24.80;;;13.50;;
18443;SDS011;9350;53.176;8.194;2024-01-10T03:21:42;29.27;;;13.77;;
18443;SDS011;9350;53.176;8.194;2024-01-10T03:24:09;24.03;;;13.10;;
18443;SDS011;9350;53.176;8.194;2024-01-10T03:26:36;24.20;;;13.27;;
18443;SDS011;9350;53.176;8.194;2024-01-10T03:29:02;29.40;;;13.70;;
18443;SDS011;9350;53.176;8.194;2024-01-10T03:31:29;27.65;;;13.70;;
18443;SDS011;9350;53.176;8.194;2024-01-10T03:33:58;27.13;;;13.70;;
18443;SDS011;9350;53.176;8.194;2024-01-10T03:36:25;25.35;;;13.73;;
18443;SDS011;9350;53.176;8.194;2024-01-10T03:38:51;27.30;;;13.90;;
18443;SDS011;9350;53.176;8.194;2024-01-10T03:41:19;23.40;;;12.70;;
18443;SDS011;9350;53.176;8.194;2024-01-10T03:43:46;30.67;;;14.32;;
18443;SDS011;9350;53.176;8.194;2024-01-10T03:46:13;24.30;;;12.75;;
18443;SDS011;9350;53.176;8.194;2024-01-10T03:48:41;26.95;;;14.18;;
18443;SDS011;9350;53.176;8.194;2024-01-10T03:51:14;23.80;;;13.33;;
18443;SDS011;9350;53.176;8.194;2024-01-10T03:53:41;29.92;;;14.55;;
18443;SDS011;9350;53.176;8.194;2024-01-10T03:56:08;31.40;;;14.50;;
18443;SDS011;9350;53.176;8.194;2024-01-10T03:58:35;29.93;;;14.43;;
18443;SDS011;9350;53.176;8.194;2024-01-10T04:01:03;29.95;;;15.10;;
18443;SDS011;9350;53.176;8.194;2024-01-10T04:03:31;31.13;;;14.80;;
18443;SDS011;9350;53.176;8.194;2024-01-10T04:05:58;29.83;;;13.93;;
18443;SDS011;9350;53.176;8.194;2024-01-10T04:08:26;33.20;;;15.00;;
18443;SDS011;9350;53.176;8.194;2024-01-10T04:10:53;36.72;;;16.25;;
18443;SDS011;9350;53.176;8.194;2024-01-10T04:13:20;35.75;;;16.23;;
18443;SDS011;9350;53.176;8.194;2024-01-10T04:15:46;35.58;;;15.63;;
18443;SDS011;9350;53.176;8.194;2024-01-10T04:18:13;33.88;;;15.35;;
18443;SDS011;9350;53.176;8.194;2024-01-10T04:20:40;36.33;;;15.05;;
18443;SDS011;9350;53.176;8.194;2024-01-10T04:23:09;35.58;;;15.30;;
18443;SDS011;9350;53.176;8.194;2024-01-10T04:25:37;29.52;;;14.57;;
18443;SDS011;9350;53.176;8.194;2024-01-10T04:28:04;34.13;;;15.27;;
18443;SDS011;9350;53.176;8.194;2024-01-10T04:30:31;35.27;;;16.20;;
18443;SDS011;9350;53.176;8.194;2024-01-10T04:32:58;36.50;;;15.05;;
18443;SDS011;9350;53.176;8.194;2024-01-10T04:35:25;32.03;;;14.23;;
18443;SDS011;9350;53.176;8.194;2024-01-10T04:37:52;38.07;;;16.03;;
18443;SDS011;9350;53.176;8.194;2024-01-10T04:40:18;35.07;;;14.63;;
18443;SDS011;9350;53.176;8.194;2024-01-10T04:42:46;37.87;;;15.43;;
18443;SDS011;9350;53.176;8.194;2024-01-10T04:45:13;35.87;;;15.23;;
18443;SDS011;9350;53.176;8.194;2024-01-10T04:47:40;35.33;;;15.10;;
18443;SDS011;9350;53.176;8.194;2024-01-10T04:50:07;34.40;;;14.77;;
18443;SDS011;9350;53.176;8.194;2024-01-10T04:52:35;36.60;;;15.00;;
18443;SDS011;9350;53.176;8.194;2024-01-10T04:55:01;38.47;;;15.77;;
18443;SDS011;9350;53.176;8.194;2024-01-10T04:57:30;34.63;;;14.97;;
18443;SDS011;9350;53.176;8.194;2024-01-10T04:59:59;40.10;;;15.97;;
18443;SDS011;9350;53.176;8.194;2024-01-10T05:02:26;35.53;;;15.43;;
18443;SDS011;9350;53.176;8.194;2024-01-10T05:04:52;37.23;;;15.87;;
18443;SDS011;9350;53.176;8.194;2024-01-10T05:07:19;41.83;;;14.70;;
18443;SDS011;9350;53.176;8.194;2024-01-10T05:09:46;37.03;;;15.57;;
18443;SDS011;9350;53.176;8.194;2024-01-10T05:12:13;36.90;;;15.57;;
18443;SDS011;9350;53.176;8.194;2024-01-10T05:14:39;35.83;;;15.67;;
18443;SDS011;9350;53.176;8.194;2024-01-10T05:17:08;36.22;;;15.50;;
18443;SDS011;9350;53.176;8.194;2024-01-10T05:19:34;38.03;;;15.57;;
18443;SDS011;9350;53.176;8.194;2024-01-10T05:22:01;39.30;;;15.90;;
18443;SDS011;9350;53.176;8.194;2024-01-10T05:24:29;33.17;;;14.60;;
18443;SDS011;9350;53.176;8.194;2024-01-10T05:26:56;35.72;;;15.20;;
18443;SDS011;9350;53.176;8.194;2024-01-10T05:29:23;39.33;;;16.07;;
18443;SDS011;9350;53.176;8.194;2024-01-10T05:31:50;39.27;;;15.47;;
18443;SDS011;9350;53.176;8.194;2024-01-10T05:34:18;34.00;;;14.77;;
18443;SDS011;9350;53.176;8.194;2024-01-10T05:36:45;38.72;;;15.80;;
18443;SDS011;9350;53.176;8.194;2024-01-10T05:39:13;35.42;;;14.93;;
18443;SDS011;9350;53.176;8.194;2024-01-10T05:41:41;37.40;;;16.20;;
18443;SDS011;9350;53.176;8.194;2024-01-10T05:44:08;41.70;;;16.33;;
18443;SDS011;9350;53.176;8.194;2024-01-10T05:46:35;36.63;;;15.48;;
18443;SDS011;9350;53.176;8.194;2024-01-10T05:49:02;36.13;;;15.10;;
18443;SDS011;9350;53.176;8.194;2024-01-10T05:51:31;36.73;;;14.07;;
18443;SDS011;9350;53.176;8.194;2024-01-10T05:53:58;37.07;;;15.27;;
18443;SDS011;9350;53.176;8.194;2024-01-10T05:56:25;39.47;;;15.63;;
18443;SDS011;9350;53.176;8.194;2024-01-10T05:58:52;40.23;;;14.77;;
18443;SDS011;9350;53.176;8.194;2024-01-10T06:01:19;35.40;;;14.83;;
18443;SDS011;9350;53.176;8.194;2024-01-10T06:03:45;36.23;;;14.37;;
18443;SDS011;9350;53.176;8.194;2024-01-10T06:06:12;39.63;;;15.47;;
18443;SDS011;9350;53.176;8.194;2024-01-10T06:08:40;36.87;;;14.30;;
18443;SDS011;9350;53.176;8.194;2024-01-10T06:11:07;34.78;;;15.63;;
18443;SDS011;9350;53.176;8.194;2024-01-10T06:13:34;40.28;;;14.30;;
18443;SDS011;9350;53.176;8.194;2024-01-10T06:16:02;36.30;;;14.07;;
18443;SDS011;9350;53.176;8.194;2024-01-10T06:18:29;30.23;;;13.40;;
18443;SDS011;9350;53.176;8.194;2024-01-10T06:20:56;35.80;;;13.83;;
18443;SDS011;9350;53.176;8.194;2024-01-10T06:23:23;38.58;;;14.10;;
18443;SDS011;9350;53.176;8.194;2024-01-10T06:25:51;37.47;;;14.70;;
18443;SDS011;9350;53.176;8.194;2024-01-10T06:28:19;34.00;;;14.43;;
18443;SDS011;9350;53.176;8.194;2024-01-10T06:30:46;35.80;;;14.23;;
18443;SDS011;9350;53.176;8.194;2024-01-10T06:33:13;33.73;;;12.93;;
18443;SDS011;9350;53.176;8.194;2024-01-10T06:35:40;36.47;;;14.32;;
18443;SDS011;9350;53.176;8.194;2024-01-10T06:38:08;37.10;;;13.80;;
18443;SDS011;9350;53.176;8.194;2024-01-10T06:40:35;35.42;;;13.88;;
18443;SDS011;9350;53.176;8.194;2024-01-10T06:43:04;38.47;;;15.00;;
18443;SDS011;9350;53.176;8.194;2024-01-10T06:45:33;32.30;;;14.43;;
18443;SDS011;9350;53.176;8.194;2024-01-10T06:48:00;40.63;;;14.93;;
18443;SDS011;9350;53.176;8.194;2024-01-10T06:50:27;40.63;;;14.77;;
18443;SDS011;9350;53.176;8.194;2024-01-10T06:52:55;38.22;;;13.93;;
18443;SDS011;9350;53.176;8.194;2024-01-10T06:55:22;35.47;;;15.33;;
18443;SDS011;9350;53.176;8.194;2024-01-10T06:57:49;33.67;;;14.20;;
18443;SDS011;9350;53.176;8.194;2024-01-10T07:00:19;36.53;;;14.70;;
18443;SDS011;9350;53.176;8.194;2024-01-10T07:02:46;34.17;;;13.20;;
18443;SDS011;9350;53.176;8.194;2024-01-10T07:05:14;36.03;;;13.77;;
18443;SDS011;9350;53.176;8.194;2024-01-10T07:07:41;38.80;;;14.70;;
18443;SDS011;9350;53.176;8.194;2024-01-10T07:10:08;34.05;;;13.70;;
18443;SDS011;9350;53.176;8.194;2024-01-10T07:12:35;32.55;;;13.13;;
18443;SDS011;9350;53.176;8.194;2024-01-10T07:15:03;38.27;;;13.80;;
18443;SDS011;9350;53.176;8.194;2024-01-10T07:17:31;36.47;;;15.00;;
18443;SDS011;9350;53.176;8.194;2024-01-10T07:19:58;35.83;;;12.82;;
18443;SDS011;9350;53.176;8.194;2024-01-10T07:22:25;31.88;;;12.52;;
18443;SDS011;9350;53.176;8.194;2024-01-10T07:24:52;40.50;;;14.35;;
18443;SDS011;9350;53.176;8.194;2024-01-10T07:27:19;36.33;;;13.37;;
18443;SDS011;9350;53.176;8.194;2024-01-10T07:29:45;37.90;;;13.33;;
18443;SDS011;9350;53.176;8.194;2024-01-10T07:32:12;30.87;;;12.50;;
18443;SDS011;9350;53.176;8.194;2024-01-10T07:34:40;35.35;;;13.05;;
18443;SDS011;9350;53.176;8.194;2024-01-10T07:37:07;29.47;;;13.13;;
18443;SDS011;9350;53.176;8.194;2024-01-10T07:39:36;33.43;;;13.63;;
18443;SDS011;9350;53.176;8.194;2024-01-10T07:42:03;32.10;;;13.82;;
18443;SDS011;9350;53.176;8.194;2024-01-10T07:44:30;31.65;;;12.38;;
18443;SDS011;9350;53.176;8.194;2024-01-10T07:46:57;39.05;;;13.68;;
18443;SDS011;9350;53.176;8.194;2024-01-10T07:49:23;36.77;;;12.73;;
18443;SDS011;9350;53.176;8.194;2024-01-10T07:51:52;31.43;;;13.17;;
18443;SDS011;9350;53.176;8.194;2024-01-10T07:54:19;37.05;;;15.07;;
18443;SDS011;9350;53.176;8.194;2024-01-10T07:56:46;33.72;;;13.57;;
18443;SDS011;9350;53.176;8.194;2024-01-10T07:59:13;31.75;;;12.82;;
18443;SDS011;9350;53.176;8.194;2024-01-10T08:01:41;36.28;;;13.18;;
18443;SDS011;9350;53.176;8.194;2024-01-10T08:04:10;30.13;;;12.93;;
18443;SDS011;9350;53.176;8.194;2024-01-10T08:06:37;30.23;;;12.87;;
18443;SDS011;9350;53.176;8.194;2024-01-10T08:09:05;35.40;;;13.10;;
18443;SDS011;9350;53.176;8.194;2024-01-10T08:11:31;32.13;;;12.50;;
18443;SDS011;9350;53.176;8.194;2024-01-10T08:13:59;30.10;;;12.03;;
18443;SDS011;9350;53.176;8.194;2024-01-10T08:16:26;31.80;;;12.50;;
18443;SDS011;9350;53.176;8.194;2024-01-10T08:18:53;29.27;;;12.03;;
18443;SDS011;9350;53.176;8.194;2024-01-10T08:21:20;30.95;;;12.07;;
18443;SDS011;9350;53.176;8.194;2024-01-10T08:23:46;28.47;;;12.43;;
18443;SDS011;9350;53.176;8.194;2024-01-10T08:26:14;30.23;;;12.53;;
18443;SDS011;9350;53.176;8.194;2024-01-10T08:28:41;29.15;;;11.85;;
18443;SDS011;9350;53.176;8.194;2024-01-10T08:31:08;29.33;;;12.60;;
18443;SDS011;9350;53.176;8.194;2024-01-10T08:33:35;33.58;;;14.02;;
18443;SDS011;9350;53.176;8.194;2024-01-10T08:36:02;30.25;;;11.85;;
18443;SDS011;9350;53.176;8.194;2024-01-10T08:38:29;30.73;;;12.45;;
18443;SDS011;9350;53.176;8.194;2024-01-10T08:40:56;32.77;;;13.97;;
18443;SDS011;9350;53.176;8.194;2024-01-10T08:43:24;33.65;;;14.48;;
18443;SDS011;9350;53.176;8.194;2024-01-10T08:45:51;38.95;;;15.20;;
18443;SDS011;9350;53.176;8.194;2024-01-10T08:48:17;33.33;;;14.60;;
18443;SDS011;9350;53.176;8.194;2024-01-10T08:50:44;32.05;;;12.43;;
18443;SDS011;9350;53.176;8.194;2024-01-10T08:53:11;32.65;;;13.43;;
18443;SDS011;9350;53.176;8.194;2024-01-10T08:55:38;33.67;;;13.73;;
18443;SDS011;9350;53.176;8.194;2024-01-10T08:58:05;34.85;;;13.70;;
18443;SDS011;9350;53.176;8.194;2024-01-10T09:00:33;34.22;;;13.23;;
18443;SDS011;9350;53.176;8.194;2024-01-10T09:03:00;34.20;;;13.47;;
18443;SDS011;9350;53.176;8.194;2024-01-10T09:05:28;31.23;;;12.97;;
18443;SDS011;9350;53.176;8.194;2024-01-10T09:07:55;31.27;;;13.57;;
18443;SDS011;9350;53.176;8.194;2024-01-10T09:10:22;28.17;;;13.43;;
18443;SDS011;9350;53.176;8.194;2024-01-10T09:12:52;32.30;;;13.48;;
18443;SDS011;9350;53.176;8.194;2024-01-10T09:15:19;30.25;;;12.85;;
18443;SDS011;9350;53.176;8.194;2024-01-10T09:17:47;33.23;;;13.23;;
18443;SDS011;9350;53.176;8.194;2024-01-10T09:20:14;32.22;;;13.38;;
18443;SDS011;9350;53.176;8.194;2024-01-10T09:22:41;31.20;;;12.63;;
18443;SDS011;9350;53.176;8.194;2024-01-10T09:25:08;34.38;;;13.32;;
18443;SDS011;9350;53.176;8.194;2024-01-10T09:27:38;33.13;;;13.20;;
18443;SDS011;9350;53.176;8.194;2024-01-10T09:30:06;37.10;;;14.13;;
18443;SDS011;9350;53.176;8.194;2024-01-10T09:32:34;31.17;;;13.40;;
18443;SDS011;9350;53.176;8.194;2024-01-10T09:35:02;34.67;;;12.32;;
18443;SDS011;9350;53.176;8.194;2024-01-10T09:37:29;33.67;;;13.73;;
18443;SDS011;9350;53.176;8.194;2024-01-10T09:39:56;30.97;;;12.83;;
18443;SDS011;9350;53.176;8.194;2024-01-10T09:42:23;31.05;;;13.52;;
18443;SDS011;9350;53.176;8.194;2024-01-10T09:44:51;30.60;;;12.57;;
18443;SDS011;9350;53.176;8.194;2024-01-10T09:47:19;29.73;;;12.35;;
18443;SDS011;9350;53.176;8.194;2024-01-10T09:49:46;25.37;;;12.13;;
18443;SDS011;9350;53.176;8.194;2024-01-10T09:52:16;31.75;;;13.10;;
18443;SDS011;9350;53.176;8.194;2024-01-10T09:54:50;26.85;;;12.77;;
18443;SDS011;9350;53.176;8.194;2024-01-10T09:57:21;30.60;;;13.18;;
18443;SDS011;9350;53.176;8.194;2024-01-10T09:59:48;31.48;;;13.98;;
18443;SDS011;9350;53.176;8.194;2024-01-10T10:02:17;31.85;;;14.15;;
18443;SDS011;9350;53.176;8.194;2024-01-10T10:04:46;37.88;;;15.85;;
18443;SDS011;9350;53.176;8.194;2024-01-10T10:07:21;28.77;;;13.17;;
18443;SDS011;9350;53.176;8.194;2024-01-10T10:09:48;32.20;;;12.88;;
18443;SDS011;9350;53.176;8.194;2024-01-10T10:12:14;32.17;;;13.43;;
18443;SDS011;9350;53.176;8.194;2024-01-10T10:14:42;31.20;;;12.00;;
18443;SDS011;9350;53.176;8.194;2024-01-10T10:17:15;29.83;;;12.32;;
18443;SDS011;9350;53.176;8.194;2024-01-10T10:19:43;30.30;;;11.32;;
18443;SDS011;9350;53.176;8.194;2024-01-10T10:22:10;31.17;;;11.98;;
18443;SDS011;9350;53.176;8.194;2024-01-10T10:24:39;27.58;;;11.85;;
18443;SDS011;9350;53.176;8.194;2024-01-10T10:27:10;27.95;;;11.95;;
18443;SDS011;9350;53.176;8.194;2024-01-10T10:29:37;29.60;;;12.65;;
18443;SDS011;9350;53.176;8.194;2024-01-10T10:32:05;27.88;;;11.93;;
18443;SDS011;9350;53.176;8.194;2024-01-10T10:34:33;27.43;;;12.00;;
18443;SDS011;9350;53.176;8.194;2024-01-10T10:37:00;27.20;;;11.50;;
18443;SDS011;9350;53.176;8.194;2024-01-10T10:39:27;23.38;;;10.52;;
18443;SDS011;9350;53.176;8.194;2024-01-10T10:41:55;27.23;;;11.32;;
18443;SDS011;9350;53.176;8.194;2024-01-10T10:44:23;27.52;;;11.50;;
18443;SDS011;9350;53.176;8.194;2024-01-10T10:46:52;29.55;;;11.80;;
18443;SDS011;9350;53.176;8.194;2024-01-10T10:49:20;30.02;;;11.68;;
18443;SDS011;9350;53.176;8.194;2024-01-10T10:51:51;28.20;;;11.55;;
18443;SDS011;9350;53.176;8.194;2024-01-10T10:54:19;26.90;;;11.27;;
18443;SDS011;9350;53.176;8.194;2024-01-10T10:56:47;25.23;;;10.48;;
18443;SDS011;9350;53.176;8.194;2024-01-10T10:59:16;24.48;;;10.93;;
18443;SDS011;9350;53.176;8.194;2024-01-10T11:01:45;24.73;;;10.63;;
18443;SDS011;9350;53.176;8.194;2024-01-10T11:04:13;22.00;;;10.35;;
18443;SDS011;9350;53.176;8.194;2024-01-10T11:06:41;23.25;;;10.50;;
18443;SDS011;9350;53.176;8.194;2024-01-10T11:09:08;26.75;;;10.65;;
18443;SDS011;9350;53.176;8.194;2024-01-10T11:11:45;27.17;;;9.63;;
18443;SDS011;9350;53.176;8.194;2024-01-10T11:14:28;23.02;;;10.48;;
18443;SDS011;9350;53.176;8.194;2024-01-10T11:23:08;21.50;;;9.45;;
18443;SDS011;9350;53.176;8.194;2024-01-10T11:25:47;24.45;;;10.13;;
18443;SDS011;9350;53.176;8.194;2024-01-10T11:28:14;20.85;;;9.70;;
18443;SDS011;9350;53.176;8.194;2024-01-10T11:30:49;23.23;;;9.55;;
18443;SDS011;9350;53.176;8.194;2024-01-10T11:33:18;22.75;;;10.48;;
18443;SDS011;9350;53.176;8.194;2024-01-10T11:38:32;24.83;;;10.13;;
18443;SDS011;9350;53.176;8.194;2024-01-10T11:40:58;18.83;;;8.40;;
18443;SDS011;9350;53.176;8.194;2024-01-10T11:43:27;19.73;;;8.80;;
18443;SDS011;9350;53.176;8.194;2024-01-10T11:45:56;21.10;;;9.20;;
18443;SDS011;9350;53.176;8.194;2024-01-10T11:48:26;21.00;;;9.23;;
18443;SDS011;9350;53.176;8.194;2024-01-10T11:50:53;19.15;;;8.70;;
18443;SDS011;9350;53.176;8.194;2024-01-10T11:53:40;18.27;;;8.68;;
18443;SDS011;9350;53.176;8.194;2024-01-10T11:56:10;19.25;;;9.00;;
18443;SDS011;9350;53.176;8.194;2024-01-10T11:58:52;18.10;;;8.10;;
18443;SDS011;9350;53.176;8.194;2024-01-10T12:01:21;15.63;;;7.05;;
18443;SDS011;9350;53.176;8.194;2024-01-10T12:03:50;17.45;;;8.10;;
18443;SDS011;9350;53.176;8.194;2024-01-10T12:06:18;13.88;;;7.07;;
18443;SDS011;9350;53.176;8.194;2024-01-10T12:08:47;13.68;;;6.50;;
18443;SDS011;9350;53.176;8.194;2024-01-10T12:11:13;20.30;;;8.70;;
18443;SDS011;9350;53.176;8.194;2024-01-10T12:13:41;18.50;;;7.80;;
18443;SDS011;9350;53.176;8.194;2024-01-10T12:16:08;13.68;;;7.13;;
18443;SDS011;9350;53.176;8.194;2024-01-10T12:18:37;15.35;;;6.75;;
18443;SDS011;9350;53.176;8.194;2024-01-10T12:21:04;15.00;;;7.57;;
18443;SDS011;9350;53.176;8.194;2024-01-10T12:23:33;16.45;;;8.05;;
18443;SDS011;9350;53.176;8.194;2024-01-10T12:26:01;18.33;;;8.65;;
18443;SDS011;9350;53.176;8.194;2024-01-10T12:28:28;15.70;;;7.22;;
18443;SDS011;9350;53.176;8.194;2024-01-10T12:30:55;13.13;;;6.75;;
18443;SDS011;9350;53.176;8.194;2024-01-10T12:33:22;16.45;;;7.07;;
18443;SDS011;9350;53.176;8.194;2024-01-10T12:36:03;13.80;;;6.97;;
18443;SDS011;9350;53.176;8.194;2024-01-10T12:38:33;15.88;;;7.88;;
18443;SDS011;9350;53.176;8.194;2024-01-10T12:41:00;20.33;;;9.13;;
18443;SDS011;9350;53.176;8.194;2024-01-10T12:43:27;14.70;;;7.85;;
18443;SDS011;9350;53.176;8.194;2024-01-10T12:46:04;17.38;;;7.57;;
18443;SDS011;9350;53.176;8.194;2024-01-10T12:48:31;17.80;;;7.93;;
18443;SDS011;9350;53.176;8.194;2024-01-10T12:51:02;15.82;;;8.52;;
18443;SDS011;9350;53.176;8.194;2024-01-10T12:53:32;14.55;;;7.72;;
18443;SDS011;9350;53.176;8.194;2024-01-10T12:56:00;18.20;;;8.27;;
18443;SDS011;9350;53.176;8.194;2024-01-10T12:58:27;18.00;;;8.00;;
18443;SDS011;9350;53.176;8.194;2024-01-10T13:00:54;15.65;;;8.00;;
18443;SDS011;9350;53.176;8.194;2024-01-10T13:03:21;12.70;;;7.32;;
18443;SDS011;9350;53.176;8.194;2024-01-10T13:05:48;12.93;;;7.03;;
18443;SDS011;9350;53.176;8.194;2024-01-10T13:08:16;17.55;;;7.97;;
18443;SDS011;9350;53.176;8.194;2024-01-10T13:10:44;14.20;;;7.72;;
18443;SDS011;9350;53.176;8.194;2024-01-10T13:13:12;13.60;;;7.55;;
18443;SDS011;9350;53.176;8.194;2024-01-10T13:15:39;15.50;;;8.40;;
18443;SDS011;9350;53.176;8.194;2024-01-10T13:18:07;16.75;;;7.53;;
18443;SDS011;9350;53.176;8.194;2024-01-10T13:20:35;15.25;;;8.15;;
18443;SDS011;9350;53.176;8.194;2024-01-10T13:23:03;14.05;;;7.80;;
18443;SDS011;9350;53.176;8.194;2024-01-10T13:25:31;14.10;;;7.88;;
18443;SDS011;9350;53.176;8.194;2024-01-10T13:27:58;14.52;;;7.22;;
18443;SDS011;9350;53.176;8.194;2024-01-10T13:30:25;11.82;;;6.63;;
18443;SDS011;9350;53.176;8.194;2024-01-10T13:32:53;15.93;;;7.57;;
18443;SDS011;9350;53.176;8.194;2024-01-10T13:35:19;15.48;;;7.10;;
18443;SDS011;9350;53.176;8.194;2024-01-10T13:37:47;14.13;;;7.47;;
18443;SDS011;9350;53.176;8.194;2024-01-10T13:40:14;14.25;;;7.45;;
18443;SDS011;9350;53.176;8.194;2024-01-10T13:42:42;13.60;;;6.93;;
18443;SDS011;9350;53.176;8.194;2024-01-10T13:45:10;14.48;;;7.40;;
18443;SDS011;9350;53.176;8.194;2024-01-10T13:47:37;13.50;;;7.25;;
18443;SDS011;9350;53.176;8.194;2024-01-10T13:50:04;13.77;;;6.85;;
18443;SDS011;9350;53.176;8.194;2024-01-10T13:52:32;13.52;;;6.70;;
18443;SDS011;9350;53.176;8.194;2024-01-10T13:54:59;12.32;;;6.60;;
18443;SDS011;9350;53.176;8.194;2024-01-10T13:57:26;12.63;;;6.70;;
18443;SDS011;9350;53.176;8.194;2024-01-10T13:59:54;14.40;;;6.90;;
18443;SDS011;9350;53.176;8.194;2024-01-10T14:02:21;13.13;;;6.97;;
18443;SDS011;9350;53.176;8.194;2024-01-10T14:04:48;12.45;;;6.53;;
18443;SDS011;9350;53.176;8.194;2024-01-10T14:07:15;11.45;;;7.05;;
18443;SDS011;9350;53.176;8.194;2024-01-10T14:09:42;19.00;;;7.30;;
18443;SDS011;9350;53.176;8.194;2024-01-10T14:12:10;12.90;;;7.07;;
18443;SDS011;9350;53.176;8.194;2024-01-10T14:14:37;13.73;;;7.47;;
18443;SDS011;9350;53.176;8.194;2024-01-10T14:17:05;12.95;;;7.00;;
18443;SDS011;9350;53.176;8.194;2024-01-10T14:19:32;11.77;;;7.18;;
18443;SDS011;9350;53.176;8.194;2024-01-10T14:21:59;10.88;;;6.45;;
18443;SDS011;9350;53.176;8.194;2024-01-10T14:24:26;14.07;;;6.97;;
18443;SDS011;9350;53.176;8.194;2024-01-10T14:26:53;14.48;;;6.88;;
18443;SDS011;9350;53.176;8.194;2024-01-10T14:29:20;12.15;;;6.72;;
18443;SDS011;9350;53.176;8.194;2024-01-10T14:31:47;13.25;;;7.47;;
18443;SDS011;9350;53.176;8.194;2024-01-10T14:34:15;15.52;;;7.72;;
18443;SDS011;9350;53.176;8.194;2024-01-10T14:36:42;15.20;;;7.80;;
18443;SDS011;9350;53.176;8.194;2024-01-10T14:39:09;14.85;;;8.38;;
18443;SDS011;9350;53.176;8.194;2024-01-10T14:41:37;15.63;;;8.45;;
18443;SDS011;9350;53.176;8.194;2024-01-10T14:44:04;14.45;;;7.88;;
18443;SDS011;9350;53.176;8.194;2024-01-10T14:46:31;14.52;;;8.15;;
18443;SDS011;9350;53.176;8.194;2024-01-10T14:48:58;14.07;;;8.20;;
18443;SDS011;9350;53.176;8.194;2024-01-10T14:51:26;18.80;;;9.18;;
18443;SDS011;9350;53.176;8.194;2024-01-10T14:53:53;14.90;;;8.82;;
18443;SDS011;9350;53.176;8.194;2024-01-10T14:56:20;17.02;;;9.45;;
18443;SDS011;9350;53.176;8.194;2024-01-10T14:58:48;20.48;;;9.65;;
18443;SDS011;9350;53.176;8.194;2024-01-10T15:01:15;20.83;;;10.82;;